• Join FlightAware (Why Join?)
  • Login
  • US Flag 
11:31AM EDT


 

Airport Tracker/Info


-or-


 

Live Flight TrackerFlight Track Log ✈ BEE3892 ✈ 06-Mar-2012 ✈ EFVA / VAA - EFHK / HEL

Flight Track Log - Related Links

Times and Time Zones

All times are in EST time to prevent confusion due to time zone crossing. See the BEE3892 flight status page for this flight to view local times or setup timezone preferences in your user account.

Time Position Orientation Groundspeed Altitude Reporting Facility
EST Latitude Longitude Course Direction KTS MPH feet Rate Location/Type
01:45AM 63.0055 21.8210 150° Southeast  Level Estimated
01:46AM 62.9494 21.8934 150° Southeast  Level Estimated
01:47AM 62.8932 21.9656 150° Southeast  Level Estimated
01:48AM 62.8370 22.0374 150° Southeast  Level Estimated
01:49AM 62.7808 22.1090 150° Southeast  Level Estimated
01:50AM 62.7245 22.1804 150° Southeast  Level Estimated
01:51AM 62.6682 22.2514 150° Southeast  Level Estimated
01:52AM 62.6119 22.3222 150° Southeast  Level Estimated
01:53AM 62.5555 22.3927 150° Southeast  Level Estimated
01:54AM 62.4991 22.4630 150° Southeast  Level Estimated
01:55AM 62.4426 22.5329 150° Southeast  Level Estimated
01:56AM 62.3862 22.6027 150° Southeast  Level Estimated
01:57AM 62.3296 22.6721 150° Southeast  Level Estimated
01:58AM 62.2731 22.7413 150° Southeast  Level Estimated
01:59AM 62.2165 22.8103 150° Southeast  Level Estimated
02:00AM 62.1599 22.8789 151° Southeast  Level Estimated
02:01AM 62.0966 22.9553 151° Southeast  Level Estimated
02:02AM 62.0334 23.0313 151° Southeast  Level Estimated
02:03AM 61.9700 23.1071 151° Southeast  Level Estimated
02:04AM 61.9067 23.1825 151° Southeast  Level Estimated
02:05AM 61.8432 23.2576 151° Southeast  Level Estimated
02:06AM 61.7798 23.3324 151° Southeast  Level Estimated
02:07AM 61.7163 23.4069 151° Southeast  Level Estimated
02:08AM 61.6528 23.4811 151° Southeast  Level Estimated
02:09AM 61.5892 23.5549 151° Southeast  Level Estimated
02:10AM 61.5256 23.6285 151° Southeast  Level Estimated
02:11AM 61.4619 23.7018 151° Southeast  Level Estimated
02:12AM 61.3982 23.7747 151° Southeast  Level Estimated
02:13AM 61.3345 23.8474 151° Southeast  Level Estimated
02:14AM 61.2707 23.9198 151° Southeast  Level Estimated
02:15AM 61.2069 23.9919 152° Southeast  Level Estimated
02:16AM 61.1431 24.0637 152° Southeast  Level Estimated
02:17AM 61.0792 24.1352 152° Southeast  Level Estimated
02:18AM 61.0153 24.2064 152° Southeast  Level Estimated
02:19AM 60.9513 24.2773 152° Southeast  Level Estimated
02:20AM 60.8873 24.3480 152° Southeast  Level Estimated
02:21AM 60.8233 24.4183 152° Southeast  Level Estimated
02:22AM 60.7592 24.4884 152° Southeast  Level Estimated
02:23AM 60.6951 24.5582 152° Southeast  Level Estimated
02:24AM 60.6310 24.6277 152° Southeast  Level Estimated
02:25AM 60.5637 24.7003 152° Southeast  Level Estimated
02:26AM 60.4963 24.7727 152° Southeast  Level Estimated
02:27AM 60.4289 24.8447 152° Southeast  Level Estimated
02:28AM 60.3615 24.9164 152° Southeast  Level Estimated
02:29AM 60.2940 24.9878 332° Northwest  Level Estimated
02:30AM 60.3615 24.9164 152° Southeast  Level Estimated
02:31AM 60.2940 24.9878 332° Northwest  Level Estimated
02:32AM 60.3615 24.9164 152° Southeast  Level Estimated
02:33AM 60.2940 24.9878 332° Northwest  Level Estimated
02:34AM 60.3615 24.9164 152° Southeast  Level Estimated
02:35AM 60.2940 24.9878 332° Northwest  Level Estimated
02:36AM 60.3615 24.9164 152° Southeast  Level Estimated
02:37AM 60.2940 24.9878 332° Northwest  Level Estimated
02:38AM 60.3615 24.9164 332° Northwest  Level Estimated